sensor_id;sensor_type;location;lat;lon;timestamp;P1;durP1;ratioP1;P2;durP2;ratioP2
34565;SDS011;20803;42.676;26.348;2022-09-03T00:02:35;16.50;;;12.73;;
34565;SDS011;20803;42.676;26.348;2022-09-03T00:07:41;16.60;;;13.93;;
34565;SDS011;20803;42.676;26.348;2022-09-03T00:10:27;15.93;;;13.93;;
34565;SDS011;20803;42.676;26.348;2022-09-03T00:12:58;15.67;;;12.57;;
34565;SDS011;20803;42.676;26.348;2022-09-03T00:15:27;15.47;;;12.20;;
34565;SDS011;20803;42.676;26.348;2022-09-03T00:17:58;19.30;;;12.33;;
34565;SDS011;20803;42.676;26.348;2022-09-03T00:20:29;17.53;;;12.90;;
34565;SDS011;20803;42.676;26.348;2022-09-03T00:23:02;13.53;;;12.13;;
34565;SDS011;20803;42.676;26.348;2022-09-03T00:25:44;17.80;;;13.80;;
34565;SDS011;20803;42.676;26.348;2022-09-03T00:28:16;21.20;;;13.33;;
34565;SDS011;20803;42.676;26.348;2022-09-03T00:30:45;14.70;;;12.77;;
34565;SDS011;20803;42.676;26.348;2022-09-03T00:33:22;15.87;;;12.50;;
34565;SDS011;20803;42.676;26.348;2022-09-03T00:36:02;16.70;;;12.70;;
34565;SDS011;20803;42.676;26.348;2022-09-03T00:38:36;16.10;;;11.73;;
34565;SDS011;20803;42.676;26.348;2022-09-03T00:43:58;15.47;;;13.07;;
34565;SDS011;20803;42.676;26.348;2022-09-03T00:58:03;14.23;;;11.43;;
34565;SDS011;20803;42.676;26.348;2022-09-03T01:00:33;13.73;;;12.33;;
34565;SDS011;20803;42.676;26.348;2022-09-03T01:03:08;14.87;;;12.27;;
34565;SDS011;20803;42.676;26.348;2022-09-03T01:30:41;13.67;;;11.37;;
34565;SDS011;20803;42.676;26.348;2022-09-03T01:38:53;13.87;;;10.77;;
34565;SDS011;20803;42.676;26.348;2022-09-03T01:44:41;10.47;;;8.60;;
34565;SDS011;20803;42.676;26.348;2022-09-03T01:58:13;8.70;;;7.90;;
34565;SDS011;20803;42.676;26.348;2022-09-03T02:00:45;9.10;;;8.20;;
34565;SDS011;20803;42.676;26.348;2022-09-03T02:03:16;8.97;;;7.10;;
34565;SDS011;20803;42.676;26.348;2022-09-03T02:05:41;10.73;;;7.63;;
34565;SDS011;20803;42.676;26.348;2022-09-03T02:08:08;10.57;;;7.50;;
34565;SDS011;20803;42.676;26.348;2022-09-03T02:10:44;9.50;;;6.67;;
34565;SDS011;20803;42.676;26.348;2022-09-03T02:15:52;7.57;;;6.77;;
34565;SDS011;20803;42.676;26.348;2022-09-03T02:18:23;8.27;;;6.30;;
34565;SDS011;20803;42.676;26.348;2022-09-03T02:20:52;7.67;;;6.73;;
34565;SDS011;20803;42.676;26.348;2022-09-03T02:23:19;8.17;;;6.73;;
34565;SDS011;20803;42.676;26.348;2022-09-03T02:25:49;8.93;;;6.80;;
34565;SDS011;20803;42.676;26.348;2022-09-03T02:28:19;6.07;;;5.47;;
34565;SDS011;20803;42.676;26.348;2022-09-03T02:30:45;5.10;;;4.60;;
34565;SDS011;20803;42.676;26.348;2022-09-03T02:33:11;5.10;;;3.10;;
34565;SDS011;20803;42.676;26.348;2022-09-03T02:35:38;2.40;;;1.70;;
34565;SDS011;20803;42.676;26.348;2022-09-03T02:38:08;1.80;;;1.50;;
34565;SDS011;20803;42.676;26.348;2022-09-03T02:40:41;3.17;;;1.37;;
34565;SDS011;20803;42.676;26.348;2022-09-03T02:43:07;1.40;;;1.30;;
34565;SDS011;20803;42.676;26.348;2022-09-03T02:45:41;1.70;;;1.00;;
34565;SDS011;20803;42.676;26.348;2022-09-03T02:48:11;1.23;;;1.13;;
34565;SDS011;20803;42.676;26.348;2022-09-03T02:50:40;3.50;;;0.97;;
34565;SDS011;20803;42.676;26.348;2022-09-03T02:53:06;1.70;;;1.30;;
34565;SDS011;20803;42.676;26.348;2022-09-03T02:55:32;1.60;;;1.30;;
34565;SDS011;20803;42.676;26.348;2022-09-03T02:57:58;1.83;;;1.50;;
34565;SDS011;20803;42.676;26.348;2022-09-03T03:00:24;2.47;;;1.20;;
34565;SDS011;20803;42.676;26.348;2022-09-03T03:02:50;2.20;;;1.67;;
34565;SDS011;20803;42.676;26.348;2022-09-03T03:05:19;1.73;;;1.60;;
34565;SDS011;20803;42.676;26.348;2022-09-03T03:07:50;1.77;;;1.67;;
34565;SDS011;20803;42.676;26.348;2022-09-03T03:10:16;1.80;;;1.50;;
34565;SDS011;20803;42.676;26.348;2022-09-03T03:12:41;3.23;;;1.80;;
34565;SDS011;20803;42.676;26.348;2022-09-03T03:15:07;2.03;;;1.80;;
34565;SDS011;20803;42.676;26.348;2022-09-03T03:17:32;1.93;;;1.80;;
34565;SDS011;20803;42.676;26.348;2022-09-03T03:19:58;2.27;;;2.07;;
34565;SDS011;20803;42.676;26.348;2022-09-03T03:22:23;5.10;;;2.10;;
34565;SDS011;20803;42.676;26.348;2022-09-03T03:24:48;4.83;;;2.07;;
34565;SDS011;20803;42.676;26.348;2022-09-03T03:27:14;2.13;;;1.90;;
34565;SDS011;20803;42.676;26.348;2022-09-03T03:29:40;2.80;;;2.30;;
34565;SDS011;20803;42.676;26.348;2022-09-03T03:32:05;2.50;;;2.30;;
34565;SDS011;20803;42.676;26.348;2022-09-03T03:34:31;3.53;;;3.13;;
34565;SDS011;20803;42.676;26.348;2022-09-03T03:36:56;3.23;;;2.87;;
34565;SDS011;20803;42.676;26.348;2022-09-03T03:39:22;4.90;;;2.97;;
34565;SDS011;20803;42.676;26.348;2022-09-03T03:41:48;3.13;;;2.83;;
34565;SDS011;20803;42.676;26.348;2022-09-03T03:44:13;3.57;;;2.90;;
34565;SDS011;20803;42.676;26.348;2022-09-03T03:46:40;3.57;;;3.27;;
34565;SDS011;20803;42.676;26.348;2022-09-03T03:49:06;3.70;;;3.03;;
34565;SDS011;20803;42.676;26.348;2022-09-03T03:51:33;3.93;;;3.13;;
34565;SDS011;20803;42.676;26.348;2022-09-03T03:53:59;3.33;;;3.03;;
34565;SDS011;20803;42.676;26.348;2022-09-03T03:56:26;3.13;;;2.83;;
34565;SDS011;20803;42.676;26.348;2022-09-03T03:58:52;3.47;;;3.00;;
34565;SDS011;20803;42.676;26.348;2022-09-03T04:01:19;3.40;;;3.10;;
34565;SDS011;20803;42.676;26.348;2022-09-03T04:03:47;3.37;;;3.03;;
34565;SDS011;20803;42.676;26.348;2022-09-03T04:06:13;4.37;;;3.53;;
34565;SDS011;20803;42.676;26.348;2022-09-03T04:08:41;3.77;;;3.33;;
34565;SDS011;20803;42.676;26.348;2022-09-03T04:11:09;3.37;;;2.97;;
34565;SDS011;20803;42.676;26.348;2022-09-03T04:13:37;3.97;;;3.53;;
34565;SDS011;20803;42.676;26.348;2022-09-03T04:16:05;5.50;;;3.90;;
34565;SDS011;20803;42.676;26.348;2022-09-03T04:18:35;4.53;;;3.57;;
34565;SDS011;20803;42.676;26.348;2022-09-03T04:21:08;3.97;;;3.57;;
34565;SDS011;20803;42.676;26.348;2022-09-03T04:23:36;4.83;;;3.40;;
34565;SDS011;20803;42.676;26.348;2022-09-03T04:26:03;5.17;;;3.80;;
34565;SDS011;20803;42.676;26.348;2022-09-03T04:28:30;6.50;;;4.13;;
34565;SDS011;20803;42.676;26.348;2022-09-03T04:31:00;4.20;;;3.80;;
34565;SDS011;20803;42.676;26.348;2022-09-03T04:33:29;4.37;;;3.97;;
34565;SDS011;20803;42.676;26.348;2022-09-03T04:36:02;4.30;;;3.90;;
34565;SDS011;20803;42.676;26.348;2022-09-03T04:38:39;4.43;;;3.77;;
34565;SDS011;20803;42.676;26.348;2022-09-03T04:41:06;4.57;;;4.03;;
34565;SDS011;20803;42.676;26.348;2022-09-03T04:43:33;4.07;;;3.60;;
34565;SDS011;20803;42.676;26.348;2022-09-03T04:45:59;5.03;;;4.53;;
34565;SDS011;20803;42.676;26.348;2022-09-03T04:48:30;4.40;;;3.67;;
34565;SDS011;20803;42.676;26.348;2022-09-03T04:51:03;4.43;;;4.03;;
34565;SDS011;20803;42.676;26.348;2022-09-03T04:53:31;4.00;;;3.70;;
34565;SDS011;20803;42.676;26.348;2022-09-03T04:55:58;6.97;;;4.27;;
34565;SDS011;20803;42.676;26.348;2022-09-03T04:58:24;4.97;;;4.20;;
34565;SDS011;20803;42.676;26.348;2022-09-03T05:00:49;6.10;;;4.27;;
34565;SDS011;20803;42.676;26.348;2022-09-03T05:03:15;6.47;;;4.23;;
34565;SDS011;20803;42.676;26.348;2022-09-03T05:05:41;4.70;;;4.30;;
34565;SDS011;20803;42.676;26.348;2022-09-03T05:08:07;4.43;;;4.00;;
34565;SDS011;20803;42.676;26.348;2022-09-03T05:10:32;4.60;;;4.10;;
34565;SDS011;20803;42.676;26.348;2022-09-03T05:15:29;5.27;;;3.47;;
34565;SDS011;20803;42.676;26.348;2022-09-03T05:18:00;3.83;;;3.33;;
34565;SDS011;20803;42.676;26.348;2022-09-03T05:20:27;3.97;;;3.50;;
34565;SDS011;20803;42.676;26.348;2022-09-03T05:22:54;3.90;;;3.10;;
34565;SDS011;20803;42.676;26.348;2022-09-03T05:25:21;3.67;;;3.33;;
34565;SDS011;20803;42.676;26.348;2022-09-03T05:27:47;3.60;;;3.27;;
34565;SDS011;20803;42.676;26.348;2022-09-03T05:30:13;4.30;;;3.60;;
34565;SDS011;20803;42.676;26.348;2022-09-03T05:32:39;4.30;;;3.83;;
34565;SDS011;20803;42.676;26.348;2022-09-03T05:35:05;4.77;;;4.37;;
34565;SDS011;20803;42.676;26.348;2022-09-03T05:37:31;4.20;;;3.80;;
34565;SDS011;20803;42.676;26.348;2022-09-03T05:39:57;4.87;;;3.87;;
34565;SDS011;20803;42.676;26.348;2022-09-03T05:42:22;4.73;;;4.27;;
34565;SDS011;20803;42.676;26.348;2022-09-03T05:44:48;3.60;;;3.30;;
34565;SDS011;20803;42.676;26.348;2022-09-03T05:47:13;3.97;;;3.57;;
34565;SDS011;20803;42.676;26.348;2022-09-03T05:49:40;5.37;;;3.37;;
34565;SDS011;20803;42.676;26.348;2022-09-03T05:52:06;4.57;;;3.80;;
34565;SDS011;20803;42.676;26.348;2022-09-03T05:54:32;7.10;;;4.00;;
34565;SDS011;20803;42.676;26.348;2022-09-03T05:56:57;3.60;;;3.30;;
34565;SDS011;20803;42.676;26.348;2022-09-03T05:59:22;4.67;;;3.30;;
34565;SDS011;20803;42.676;26.348;2022-09-03T06:01:48;5.23;;;3.43;;
34565;SDS011;20803;42.676;26.348;2022-09-03T06:04:14;4.00;;;3.00;;
34565;SDS011;20803;42.676;26.348;2022-09-03T06:06:44;3.60;;;3.30;;
34565;SDS011;20803;42.676;26.348;2022-09-03T06:09:11;4.87;;;2.93;;
34565;SDS011;20803;42.676;26.348;2022-09-03T06:11:40;4.50;;;2.83;;
34565;SDS011;20803;42.676;26.348;2022-09-03T06:14:07;7.63;;;3.07;;
34565;SDS011;20803;42.676;26.348;2022-09-03T06:16:36;3.53;;;3.23;;
34565;SDS011;20803;42.676;26.348;2022-09-03T06:19:05;3.60;;;3.30;;
34565;SDS011;20803;42.676;26.348;2022-09-03T06:21:34;3.57;;;3.03;;
34565;SDS011;20803;42.676;26.348;2022-09-03T06:24:07;2.70;;;2.50;;
34565;SDS011;20803;42.676;26.348;2022-09-03T06:26:33;4.23;;;2.10;;
34565;SDS011;20803;42.676;26.348;2022-09-03T06:28:59;2.30;;;2.10;;
34565;SDS011;20803;42.676;26.348;2022-09-03T06:31:24;2.83;;;2.00;;
34565;SDS011;20803;42.676;26.348;2022-09-03T06:33:50;3.20;;;1.70;;
34565;SDS011;20803;42.676;26.348;2022-09-03T06:36:18;4.10;;;2.10;;
34565;SDS011;20803;42.676;26.348;2022-09-03T06:38:45;2.00;;;1.73;;
34565;SDS011;20803;42.676;26.348;2022-09-03T06:41:21;3.20;;;2.00;;
34565;SDS011;20803;42.676;26.348;2022-09-03T06:43:52;2.20;;;1.70;;
34565;SDS011;20803;42.676;26.348;2022-09-03T06:46:18;2.10;;;1.70;;
34565;SDS011;20803;42.676;26.348;2022-09-03T06:48:45;1.87;;;1.60;;
34565;SDS011;20803;42.676;26.348;2022-09-03T06:51:15;3.50;;;1.77;;
34565;SDS011;20803;42.676;26.348;2022-09-03T06:53:44;2.90;;;1.83;;
34565;SDS011;20803;42.676;26.348;2022-09-03T06:56:12;1.80;;;1.70;;
34565;SDS011;20803;42.676;26.348;2022-09-03T06:58:39;2.23;;;1.50;;
34565;SDS011;20803;42.676;26.348;2022-09-03T07:01:14;1.67;;;1.50;;
34565;SDS011;20803;42.676;26.348;2022-09-03T07:03:42;1.93;;;1.70;;
34565;SDS011;20803;42.676;26.348;2022-09-03T07:08:35;2.73;;;2.17;;
34565;SDS011;20803;42.676;26.348;2022-09-03T07:11:01;2.03;;;1.83;;
34565;SDS011;20803;42.676;26.348;2022-09-03T07:13:30;1.80;;;1.47;;
34565;SDS011;20803;42.676;26.348;2022-09-03T07:16:03;1.53;;;1.43;;
34565;SDS011;20803;42.676;26.348;2022-09-03T07:18:31;3.37;;;1.67;;
34565;SDS011;20803;42.676;26.348;2022-09-03T07:21:00;2.43;;;1.53;;
34565;SDS011;20803;42.676;26.348;2022-09-03T07:23:28;2.07;;;1.70;;
34565;SDS011;20803;42.676;26.348;2022-09-03T07:25:54;1.80;;;1.60;;
34565;SDS011;20803;42.676;26.348;2022-09-03T07:28:21;2.30;;;1.83;;
34565;SDS011;20803;42.676;26.348;2022-09-03T07:30:49;3.50;;;1.80;;
34565;SDS011;20803;42.676;26.348;2022-09-03T07:33:15;1.87;;;1.57;;
34565;SDS011;20803;42.676;26.348;2022-09-03T07:35:41;1.90;;;1.70;;
34565;SDS011;20803;42.676;26.348;2022-09-03T07:38:06;1.90;;;1.50;;
34565;SDS011;20803;42.676;26.348;2022-09-03T07:40:32;1.83;;;1.60;;
34565;SDS011;20803;42.676;26.348;2022-09-03T07:42:57;2.10;;;1.50;;
34565;SDS011;20803;42.676;26.348;2022-09-03T07:45:27;1.93;;;1.70;;
34565;SDS011;20803;42.676;26.348;2022-09-03T07:47:53;2.37;;;1.70;;
34565;SDS011;20803;42.676;26.348;2022-09-03T07:50:18;1.93;;;1.50;;
34565;SDS011;20803;42.676;26.348;2022-09-03T07:52:44;2.77;;;1.70;;
34565;SDS011;20803;42.676;26.348;2022-09-03T07:55:12;1.93;;;1.57;;
34565;SDS011;20803;42.676;26.348;2022-09-03T07:57:38;3.23;;;1.40;;
34565;SDS011;20803;42.676;26.348;2022-09-03T08:00:04;1.40;;;1.30;;
34565;SDS011;20803;42.676;26.348;2022-09-03T08:02:32;3.80;;;1.70;;
34565;SDS011;20803;42.676;26.348;2022-09-03T08:04:58;1.97;;;1.30;;
34565;SDS011;20803;42.676;26.348;2022-09-03T08:07:24;4.03;;;1.50;;
34565;SDS011;20803;42.676;26.348;2022-09-03T08:09:49;3.07;;;1.23;;
34565;SDS011;20803;42.676;26.348;2022-09-03T08:12:15;2.07;;;1.40;;
34565;SDS011;20803;42.676;26.348;2022-09-03T08:14:40;2.57;;;1.60;;
34565;SDS011;20803;42.676;26.348;2022-09-03T08:17:06;2.10;;;1.70;;
34565;SDS011;20803;42.676;26.348;2022-09-03T08:19:31;1.97;;;1.40;;
34565;SDS011;20803;42.676;26.348;2022-09-03T08:21:58;2.10;;;1.70;;
34565;SDS011;20803;42.676;26.348;2022-09-03T08:24:24;2.47;;;1.53;;
34565;SDS011;20803;42.676;26.348;2022-09-03T08:26:50;4.50;;;2.10;;
34565;SDS011;20803;42.676;26.348;2022-09-03T08:29:16;2.40;;;2.10;;
34565;SDS011;20803;42.676;26.348;2022-09-03T08:31:42;3.13;;;1.87;;
34565;SDS011;20803;42.676;26.348;2022-09-03T08:34:08;2.30;;;1.80;;
34565;SDS011;20803;42.676;26.348;2022-09-03T08:36:36;2.00;;;1.80;;
34565;SDS011;20803;42.676;26.348;2022-09-03T08:39:06;3.00;;;1.80;;
34565;SDS011;20803;42.676;26.348;2022-09-03T08:44:21;2.30;;;1.77;;
34565;SDS011;20803;42.676;26.348;2022-09-03T08:46:54;3.40;;;1.80;;
34565;SDS011;20803;42.676;26.348;2022-09-03T08:49:43;2.20;;;1.80;;
34565;SDS011;20803;42.676;26.348;2022-09-03T08:52:17;1.73;;;1.63;;
34565;SDS011;20803;42.676;26.348;2022-09-03T08:54:49;2.07;;;1.87;;
34565;SDS011;20803;42.676;26.348;2022-09-03T08:57:18;2.50;;;2.20;;
34565;SDS011;20803;42.676;26.348;2022-09-03T08:59:45;2.10;;;1.87;;
34565;SDS011;20803;42.676;26.348;2022-09-03T09:05:22;2.17;;;1.97;;
34565;SDS011;20803;42.676;26.348;2022-09-03T09:07:46;2.43;;;1.83;;
34565;SDS011;20803;42.676;26.348;2022-09-03T09:10:26;3.23;;;2.07;;
34565;SDS011;20803;42.676;26.348;2022-09-03T09:13:11;2.67;;;2.03;;
34565;SDS011;20803;42.676;26.348;2022-09-03T09:21:39;1.97;;;1.77;;
34565;SDS011;20803;42.676;26.348;2022-09-03T09:24:12;2.23;;;2.00;;
34565;SDS011;20803;42.676;26.348;2022-09-03T09:27:01;2.77;;;2.27;;
34565;SDS011;20803;42.676;26.348;2022-09-03T09:29:36;2.33;;;2.10;;
34565;SDS011;20803;42.676;26.348;2022-09-03T09:32:03;4.13;;;2.40;;
34565;SDS011;20803;42.676;26.348;2022-09-03T09:34:36;2.97;;;2.30;;
34565;SDS011;20803;42.676;26.348;2022-09-03T09:37:05;4.10;;;3.67;;
34565;SDS011;20803;42.676;26.348;2022-09-03T09:39:35;4.13;;;2.47;;
34565;SDS011;20803;42.676;26.348;2022-09-03T09:42:04;2.70;;;2.13;;
34565;SDS011;20803;42.676;26.348;2022-09-03T09:44:39;3.87;;;2.97;;
34565;SDS011;20803;42.676;26.348;2022-09-03T09:47:11;4.37;;;2.10;;
34565;SDS011;20803;42.676;26.348;2022-09-03T09:52:11;3.50;;;2.80;;
34565;SDS011;20803;42.676;26.348;2022-09-03T09:54:40;3.03;;;2.40;;
34565;SDS011;20803;42.676;26.348;2022-09-03T09:57:12;3.50;;;2.40;;
34565;SDS011;20803;42.676;26.348;2022-09-03T09:59:42;3.13;;;2.73;;
34565;SDS011;20803;42.676;26.348;2022-09-03T10:02:16;2.77;;;2.20;;
34565;SDS011;20803;42.676;26.348;2022-09-03T10:04:48;2.53;;;2.10;;
34565;SDS011;20803;42.676;26.348;2022-09-03T10:09:45;2.70;;;2.40;;
34565;SDS011;20803;42.676;26.348;2022-09-03T10:17:54;3.07;;;2.53;;
34565;SDS011;20803;42.676;26.348;2022-09-03T10:23:00;4.77;;;2.60;;
34565;SDS011;20803;42.676;26.348;2022-09-03T10:28:26;3.10;;;2.40;;
34565;SDS011;20803;42.676;26.348;2022-09-03T10:31:01;5.73;;;3.03;;
34565;SDS011;20803;42.676;26.348;2022-09-03T10:33:41;4.03;;;2.40;;
34565;SDS011;20803;42.676;26.348;2022-09-03T10:36:19;3.37;;;2.83;;
34565;SDS011;20803;42.676;26.348;2022-09-03T10:38:58;6.03;;;2.90;;
34565;SDS011;20803;42.676;26.348;2022-09-03T10:50:00;2.70;;;2.47;;
34565;SDS011;20803;42.676;26.348;2022-09-03T10:53:19;4.23;;;2.83;;
34565;SDS011;20803;42.676;26.348;2022-09-03T10:56:01;3.33;;;2.70;;
34565;SDS011;20803;42.676;26.348;2022-09-03T10:58:43;2.83;;;2.60;;
34565;SDS011;20803;42.676;26.348;2022-09-03T11:01:13;4.23;;;2.83;;
34565;SDS011;20803;42.676;26.348;2022-09-03T11:03:55;2.83;;;2.63;;
34565;SDS011;20803;42.676;26.348;2022-09-03T11:09:42;3.53;;;3.00;;
34565;SDS011;20803;42.676;26.348;2022-09-03T11:12:12;3.07;;;2.83;;
34565;SDS011;20803;42.676;26.348;2022-09-03T11:14:49;4.73;;;4.17;;
34565;SDS011;20803;42.676;26.348;2022-09-03T11:17:24;2.83;;;2.63;;
34565;SDS011;20803;42.676;26.348;2022-09-03T11:22:35;3.30;;;3.00;;
34565;SDS011;20803;42.676;26.348;2022-09-03T11:25:03;3.40;;;3.10;;
34565;SDS011;20803;42.676;26.348;2022-09-03T11:30:10;2.67;;;2.47;;
34565;SDS011;20803;42.676;26.348;2022-09-03T11:32:57;3.33;;;3.03;;
34565;SDS011;20803;42.676;26.348;2022-09-03T11:37:59;3.80;;;2.67;;
34565;SDS011;20803;42.676;26.348;2022-09-03T11:40:33;6.70;;;3.07;;
34565;SDS011;20803;42.676;26.348;2022-09-03T11:48:38;3.20;;;2.90;;
34565;SDS011;20803;42.676;26.348;2022-09-03T11:51:18;4.73;;;3.50;;
34565;SDS011;20803;42.676;26.348;2022-09-03T11:53:59;3.97;;;3.57;;
34565;SDS011;20803;42.676;26.348;2022-09-03T11:56:27;3.93;;;3.60;;
34565;SDS011;20803;42.676;26.348;2022-09-03T12:01:51;4.20;;;3.80;;
34565;SDS011;20803;42.676;26.348;2022-09-03T12:04:26;3.63;;;3.33;;
34565;SDS011;20803;42.676;26.348;2022-09-03T12:14:57;3.93;;;3.57;;
34565;SDS011;20803;42.676;26.348;2022-09-03T12:20:13;5.37;;;3.93;;
34565;SDS011;20803;42.676;26.348;2022-09-03T12:22:40;4.27;;;3.60;;
34565;SDS011;20803;42.676;26.348;2022-09-03T12:25:09;5.43;;;3.80;;
34565;SDS011;20803;42.676;26.348;2022-09-03T12:27:39;3.97;;;3.57;;
34565;SDS011;20803;42.676;26.348;2022-09-03T12:30:15;4.07;;;3.67;;
34565;SDS011;20803;42.676;26.348;2022-09-03T12:32:43;4.30;;;3.47;;
34565;SDS011;20803;42.676;26.348;2022-09-03T12:35:19;3.80;;;3.50;;
34565;SDS011;20803;42.676;26.348;2022-09-03T12:37:50;3.80;;;3.50;;
34565;SDS011;20803;42.676;26.348;2022-09-03T12:42:45;3.40;;;3.10;;
34565;SDS011;20803;42.676;26.348;2022-09-03T12:45:11;4.20;;;3.40;;
34565;SDS011;20803;42.676;26.348;2022-09-03T12:47:40;3.60;;;3.30;;
34565;SDS011;20803;42.676;26.348;2022-09-03T12:50:16;4.47;;;4.07;;
34565;SDS011;20803;42.676;26.348;2022-09-03T13:00:52;4.27;;;3.73;;
34565;SDS011;20803;42.676;26.348;2022-09-03T13:03:26;3.70;;;3.40;;
34565;SDS011;20803;42.676;26.348;2022-09-03T13:06:19;4.17;;;3.77;;
34565;SDS011;20803;42.676;26.348;2022-09-03T13:08:47;4.43;;;4.03;;
34565;SDS011;20803;42.676;26.348;2022-09-03T13:11:19;6.03;;;4.10;;
34565;SDS011;20803;42.676;26.348;2022-09-03T13:14:10;4.10;;;3.70;;
34565;SDS011;20803;42.676;26.348;2022-09-03T13:19:35;5.47;;;3.83;;
34565;SDS011;20803;42.676;26.348;2022-09-03T13:33:32;5.27;;;4.77;;
34565;SDS011;20803;42.676;26.348;2022-09-03T13:36:17;4.23;;;3.87;;
34565;SDS011;20803;42.676;26.348;2022-09-03T13:44:14;4.63;;;4.23;;
34565;SDS011;20803;42.676;26.348;2022-09-03T13:46:51;4.43;;;4.03;;
34565;SDS011;20803;42.676;26.348;2022-09-03T13:52:24;4.80;;;4.30;;
34565;SDS011;20803;42.676;26.348;2022-09-03T13:55:01;4.10;;;3.70;;
34565;SDS011;20803;42.676;26.348;2022-09-03T13:57:55;20.00;;;4.13;;
34565;SDS011;20803;42.676;26.348;2022-09-03T14:00:27;4.10;;;3.70;;
34565;SDS011;20803;42.676;26.348;2022-09-03T14:03:06;5.57;;;5.07;;
34565;SDS011;20803;42.676;26.348;2022-09-03T14:08:39;4.80;;;4.40;;
34565;SDS011;20803;42.676;26.348;2022-09-03T14:11:28;5.30;;;4.80;;
34565;SDS011;20803;42.676;26.348;2022-09-03T14:16:37;7.77;;;4.30;;
34565;SDS011;20803;42.676;26.348;2022-09-03T14:19:11;4.83;;;4.33;;
34565;SDS011;20803;42.676;26.348;2022-09-03T14:24:26;4.93;;;4.53;;
34565;SDS011;20803;42.676;26.348;2022-09-03T14:27:03;5.17;;;4.67;;
34565;SDS011;20803;42.676;26.348;2022-09-03T14:29:32;4.90;;;4.50;;
34565;SDS011;20803;42.676;26.348;2022-09-03T14:40:29;5.07;;;4.53;;
34565;SDS011;20803;42.676;26.348;2022-09-03T15:17:34;5.00;;;3.80;;
34565;SDS011;20803;42.676;26.348;2022-09-03T15:23:22;4.30;;;3.90;;
34565;SDS011;20803;42.676;26.348;2022-09-03T15:37:38;4.77;;;4.27;;
34565;SDS011;20803;42.676;26.348;2022-09-03T15:43:18;4.27;;;3.87;;
34565;SDS011;20803;42.676;26.348;2022-09-03T15:45:54;4.37;;;3.97;;
34565;SDS011;20803;42.676;26.348;2022-09-03T15:48:33;4.80;;;4.20;;
34565;SDS011;20803;42.676;26.348;2022-09-03T15:51:12;4.40;;;4.00;;
34565;SDS011;20803;42.676;26.348;2022-09-03T16:01:51;6.47;;;3.73;;
34565;SDS011;20803;42.676;26.348;2022-09-03T16:04:38;4.50;;;4.10;;
34565;SDS011;20803;42.676;26.348;2022-09-03T16:10:11;4.33;;;3.93;;
34565;SDS011;20803;42.676;26.348;2022-09-03T16:24:04;3.40;;;3.10;;
34565;SDS011;20803;42.676;26.348;2022-09-03T16:26:47;4.00;;;3.63;;
34565;SDS011;20803;42.676;26.348;2022-09-03T16:29:18;3.77;;;3.40;;
34565;SDS011;20803;42.676;26.348;2022-09-03T16:34:49;3.87;;;3.33;;
34565;SDS011;20803;42.676;26.348;2022-09-03T16:40:45;3.00;;;2.70;;
34565;SDS011;20803;42.676;26.348;2022-09-03T16:56:40;2.60;;;2.40;;
34565;SDS011;20803;42.676;26.348;2022-09-03T17:19:00;2.53;;;2.23;;
34565;SDS011;20803;42.676;26.348;2022-09-03T17:27:00;4.10;;;2.67;;
34565;SDS011;20803;42.676;26.348;2022-09-03T17:32:19;3.07;;;2.80;;
34565;SDS011;20803;42.676;26.348;2022-09-03T17:35:10;2.87;;;2.43;;
34565;SDS011;20803;42.676;26.348;2022-09-03T17:37:46;2.73;;;2.53;;
34565;SDS011;20803;42.676;26.348;2022-09-03T17:51:33;4.03;;;3.50;;
34565;SDS011;20803;42.676;26.348;2022-09-03T17:56:48;3.47;;;3.17;;
34565;SDS011;20803;42.676;26.348;2022-09-03T18:02:15;4.23;;;3.40;;
34565;SDS011;20803;42.676;26.348;2022-09-03T18:13:12;3.73;;;3.43;;
34565;SDS011;20803;42.676;26.348;2022-09-03T18:16:06;3.60;;;3.30;;
34565;SDS011;20803;42.676;26.348;2022-09-03T18:18:46;4.43;;;3.33;;
34565;SDS011;20803;42.676;26.348;2022-09-03T18:21:22;4.17;;;3.20;;
34565;SDS011;20803;42.676;26.348;2022-09-03T18:27:28;3.53;;;3.10;;
34565;SDS011;20803;42.676;26.348;2022-09-03T18:30:18;4.13;;;3.73;;
34565;SDS011;20803;42.676;26.348;2022-09-03T18:33:03;5.17;;;3.93;;
34565;SDS011;20803;42.676;26.348;2022-09-03T18:35:47;4.73;;;4.00;;
34565;SDS011;20803;42.676;26.348;2022-09-03T18:38:34;6.00;;;3.67;;
34565;SDS011;20803;42.676;26.348;2022-09-03T18:53:24;4.53;;;4.00;;
34565;SDS011;20803;42.676;26.348;2022-09-03T18:56:24;4.60;;;3.90;;
34565;SDS011;20803;42.676;26.348;2022-09-03T18:59:21;4.37;;;3.70;;
34565;SDS011;20803;42.676;26.348;2022-09-03T19:08:30;5.83;;;4.40;;
34565;SDS011;20803;42.676;26.348;2022-09-03T19:17:52;4.20;;;3.77;;
34565;SDS011;20803;42.676;26.348;2022-09-03T19:21:32;3.93;;;3.60;;
34565;SDS011;20803;42.676;26.348;2022-09-03T19:23:55;4.07;;;3.67;;
34565;SDS011;20803;42.676;26.348;2022-09-03T19:26:44;3.97;;;3.33;;
34565;SDS011;20803;42.676;26.348;2022-09-03T19:29:44;3.83;;;3.43;;
34565;SDS011;20803;42.676;26.348;2022-09-03T19:32:36;4.33;;;3.80;;
34565;SDS011;20803;42.676;26.348;2022-09-03T19:35:54;3.60;;;3.30;;
34565;SDS011;20803;42.676;26.348;2022-09-03T19:39:06;4.60;;;3.70;;
34565;SDS011;20803;42.676;26.348;2022-09-03T19:42:20;3.43;;;3.13;;
34565;SDS011;20803;42.676;26.348;2022-09-03T19:54:12;4.73;;;4.10;;
34565;SDS011;20803;42.676;26.348;2022-09-03T19:56:56;4.17;;;3.70;;
34565;SDS011;20803;42.676;26.348;2022-09-03T19:59:41;4.13;;;3.73;;
34565;SDS011;20803;42.676;26.348;2022-09-03T20:02:30;3.90;;;3.50;;
34565;SDS011;20803;42.676;26.348;2022-09-03T20:05:19;3.93;;;3.40;;
34565;SDS011;20803;42.676;26.348;2022-09-03T20:08:04;4.30;;;3.87;;
34565;SDS011;20803;42.676;26.348;2022-09-03T20:10:49;3.63;;;3.33;;
34565;SDS011;20803;42.676;26.348;2022-09-03T20:13:18;4.40;;;4.00;;
34565;SDS011;20803;42.676;26.348;2022-09-03T20:16:08;4.40;;;3.73;;
34565;SDS011;20803;42.676;26.348;2022-09-03T20:21:22;4.00;;;3.70;;
34565;SDS011;20803;42.676;26.348;2022-09-03T20:24:13;4.77;;;4.37;;
34565;SDS011;20803;42.676;26.348;2022-09-03T20:26:59;3.80;;;3.40;;
34565;SDS011;20803;42.676;26.348;2022-09-03T20:37:42;3.70;;;3.30;;
34565;SDS011;20803;42.676;26.348;2022-09-03T20:40:16;3.30;;;3.00;;
34565;SDS011;20803;42.676;26.348;2022-09-03T20:45:23;3.43;;;3.13;;
34565;SDS011;20803;42.676;26.348;2022-09-03T20:53:15;3.30;;;2.90;;
34565;SDS011;20803;42.676;26.348;2022-09-03T20:56:19;3.27;;;2.77;;
34565;SDS011;20803;42.676;26.348;2022-09-03T21:04:32;4.53;;;4.10;;
34565;SDS011;20803;42.676;26.348;2022-09-03T21:20:31;3.20;;;2.90;;
34565;SDS011;20803;42.676;26.348;2022-09-03T21:25:43;4.33;;;3.40;;
34565;SDS011;20803;42.676;26.348;2022-09-03T21:30:54;3.57;;;3.27;;
34565;SDS011;20803;42.676;26.348;2022-09-03T21:33:34;4.23;;;3.83;;
34565;SDS011;20803;42.676;26.348;2022-09-03T21:36:06;3.57;;;3.27;;
34565;SDS011;20803;42.676;26.348;2022-09-03T21:38:36;3.57;;;3.20;;
34565;SDS011;20803;42.676;26.348;2022-09-03T21:43:35;5.37;;;3.57;;
34565;SDS011;20803;42.676;26.348;2022-09-03T21:46:14;3.83;;;3.43;;
34565;SDS011;20803;42.676;26.348;2022-09-03T21:48:55;4.07;;;3.67;;
34565;SDS011;20803;42.676;26.348;2022-09-03T21:53:58;5.00;;;3.60;;
34565;SDS011;20803;42.676;26.348;2022-09-03T21:59:04;4.00;;;3.60;;
34565;SDS011;20803;42.676;26.348;2022-09-03T22:04:30;4.00;;;3.60;;
34565;SDS011;20803;42.676;26.348;2022-09-03T22:15:39;4.53;;;3.90;;
34565;SDS011;20803;42.676;26.348;2022-09-03T22:20:45;3.97;;;3.53;;
34565;SDS011;20803;42.676;26.348;2022-09-03T22:23:20;4.43;;;4.03;;